createdAt,value
2023-05-25T00:00:31.766Z,14.05
2023-05-25T00:03:52.784Z,14.16
2023-05-25T00:06:55.008Z,14.13
2023-05-25T00:09:57.083Z,14.28
2023-05-25T00:12:59.044Z,13.94
2023-05-25T00:16:00.978Z,13.96
2023-05-25T00:19:07.286Z,13.99
2023-05-25T00:22:10.517Z,14.10
2023-05-25T00:25:12.800Z,14.00
2023-05-25T00:28:14.737Z,14.06
2023-05-25T00:31:16.715Z,14.04
2023-05-25T00:34:18.917Z,13.89
2023-05-25T00:37:20.999Z,13.83
2023-05-25T00:40:22.938Z,13.92
2023-05-25T00:43:24.849Z,13.80
2023-05-25T00:46:27.171Z,13.87
2023-05-25T00:49:31.820Z,13.92
2023-05-25T00:52:33.940Z,13.77
2023-05-25T00:55:39.518Z,13.70
2023-05-25T00:58:44.198Z,13.91
2023-05-25T01:01:48.698Z,13.79
2023-05-25T01:04:59.809Z,13.85
2023-05-25T01:08:04.253Z,13.72
2023-05-25T01:11:08.331Z,13.86
2023-05-25T01:14:10.970Z,13.62
2023-05-25T01:17:13.928Z,13.69
2023-05-25T01:20:16.413Z,13.87
2023-05-25T01:23:20.653Z,13.70
2023-05-25T01:26:26.798Z,13.72
2023-05-25T01:29:32.151Z,13.72
2023-05-25T01:32:35.422Z,13.93
2023-05-25T01:35:38.910Z,13.84
2023-05-25T01:38:40.955Z,13.93
2023-05-25T01:41:43.186Z,13.95
2023-05-25T01:44:45.888Z,13.74
2023-05-25T01:48:13.108Z,13.95
2023-05-25T01:51:32.308Z,13.90
2023-05-25T01:54:41.041Z,13.88
2023-05-25T01:57:46.916Z,13.96
2023-05-25T02:00:51.049Z,13.87
2023-05-25T02:03:53.783Z,13.79
2023-05-25T02:06:55.815Z,13.73
2023-05-25T02:09:57.879Z,13.82
2023-05-25T02:12:59.821Z,13.73
2023-05-25T02:16:01.937Z,13.63
2023-05-25T02:19:03.992Z,13.79
2023-05-25T02:22:06.182Z,13.85
2023-05-25T02:25:09.223Z,13.72
2023-05-25T02:28:11.348Z,13.79
2023-05-25T02:31:13.534Z,13.82
2023-05-25T02:34:15.788Z,13.58
2023-05-25T02:37:17.698Z,13.79
2023-05-25T02:40:19.726Z,13.80
2023-05-25T02:43:22.119Z,13.85
2023-05-25T02:46:24.126Z,13.82
2023-05-25T02:49:26.366Z,13.71
2023-05-25T02:52:30.583Z,13.74
2023-05-25T02:55:34.073Z,13.89
2023-05-25T02:58:37.297Z,13.63
2023-05-25T03:01:46.750Z,13.80
2023-05-25T03:04:49.906Z,13.96
2023-05-25T03:07:53.584Z,13.85
2023-05-25T03:10:55.900Z,13.96
2023-05-25T03:13:57.893Z,13.95
2023-05-25T03:16:59.961Z,13.97
2023-05-25T03:20:02.815Z,13.95
2023-05-25T03:23:05.025Z,14.02
2023-05-25T03:30:03.821Z,14.00
2023-05-25T03:33:05.907Z,14.14
2023-05-25T03:36:17.270Z,14.06
2023-05-25T03:39:20.194Z,14.03
2023-05-25T03:42:22.386Z,13.94
2023-05-25T03:45:24.314Z,14.17
2023-05-25T03:48:26.176Z,14.09
2023-05-25T03:51:29.470Z,14.20
2023-05-25T03:54:31.479Z,14.63
2023-05-25T03:57:33.376Z,14.50
2023-05-25T04:04:59.923Z,15.09
2023-05-25T04:08:03.367Z,15.49
2023-05-25T04:11:05.368Z,15.04
2023-05-25T04:14:07.356Z,15.46
2023-05-25T04:17:13.011Z,15.00
2023-05-25T04:20:15.028Z,15.38
2023-05-25T04:23:17.549Z,15.58
2023-05-25T04:26:20.453Z,15.96
2023-05-25T04:29:24.748Z,15.93
2023-05-25T04:32:46.964Z,15.78
2023-05-25T04:36:06.404Z,16.10
2023-05-25T04:39:09.119Z,15.98
2023-05-25T04:42:17.100Z,16.13
2023-05-25T04:45:21.464Z,15.76
2023-05-25T04:48:24.988Z,15.85
2023-05-25T04:51:26.999Z,16.22
2023-05-25T04:54:28.992Z,16.22
2023-05-25T04:57:33.555Z,16.46
2023-05-25T05:00:36.454Z,16.17
2023-05-25T05:03:38.592Z,16.22
2023-05-25T05:06:40.978Z,15.89
2023-05-25T05:13:44.613Z,16.45
2023-05-25T05:16:48.282Z,16.48
2023-05-25T05:19:50.784Z,16.77
2023-05-25T05:22:53.528Z,16.66
2023-05-25T05:25:55.927Z,16.78
2023-05-25T05:28:58.775Z,16.49
2023-05-25T05:32:01.120Z,17.11
2023-05-25T05:35:03.148Z,17.06
2023-05-25T05:38:15.626Z,16.84
2023-05-25T05:41:17.799Z,17.20
2023-05-25T05:44:27.773Z,17.13
2023-05-25T05:47:31.302Z,17.21
2023-05-25T05:50:33.349Z,17.10
2023-05-25T05:53:35.843Z,17.61
2023-05-25T05:56:38.046Z,17.26
2023-05-25T05:59:40.000Z,17.66
2023-05-25T06:02:43.004Z,17.56
2023-05-25T06:05:48.112Z,17.34
2023-05-25T06:08:50.596Z,18.14
2023-05-25T06:11:52.651Z,17.72
2023-05-25T06:14:54.916Z,18.14
2023-05-25T06:17:57.028Z,18.69
2023-05-25T06:21:18.954Z,18.44
2023-05-25T06:24:22.893Z,18.54
2023-05-25T06:27:24.807Z,18.58
2023-05-25T06:30:26.717Z,18.35
2023-05-25T06:33:28.687Z,18.60
2023-05-25T06:36:32.132Z,19.04
2023-05-25T06:39:34.986Z,18.73
2023-05-25T06:42:37.918Z,18.70
2023-05-25T06:45:40.352Z,19.11
2023-05-25T06:48:42.240Z,19.11
2023-05-25T06:51:44.177Z,18.87
2023-05-25T06:55:26.772Z,19.54
2023-05-25T06:58:49.474Z,19.15
2023-05-25T07:01:51.517Z,18.76
2023-05-25T07:04:53.665Z,18.88
2023-05-25T07:07:55.672Z,18.86
2023-05-25T07:10:57.617Z,19.07
2023-05-25T07:13:59.567Z,20.03
2023-05-25T07:17:01.628Z,19.91
2023-05-25T07:20:04.955Z,19.62
2023-05-25T07:23:07.012Z,19.18
2023-05-25T07:26:09.093Z,19.27
2023-05-25T07:29:12.370Z,19.70
2023-05-25T07:32:14.312Z,19.79
2023-05-25T07:35:16.312Z,20.10
2023-05-25T07:38:18.302Z,19.26
2023-05-25T07:41:20.206Z,19.32
2023-05-25T07:44:22.150Z,19.88
2023-05-25T07:47:24.135Z,19.50
2023-05-25T07:50:26.358Z,20.40
2023-05-25T07:53:28.254Z,20.38
2023-05-25T07:56:30.156Z,20.73
2023-05-25T07:59:32.165Z,20.70
2023-05-25T08:02:34.510Z,20.45
2023-05-25T08:05:36.775Z,21.07
2023-05-25T08:08:38.674Z,21.28
2023-05-25T08:11:40.646Z,20.80
2023-05-25T08:14:42.537Z,21.27
2023-05-25T08:17:44.599Z,21.67
2023-05-25T08:20:47.233Z,21.43
2023-05-25T08:23:50.796Z,21.54
2023-05-25T08:26:54.275Z,20.72
2023-05-25T08:30:07.573Z,21.29
2023-05-25T08:33:10.550Z,20.55
2023-05-25T08:36:12.590Z,21.22
2023-05-25T08:39:15.780Z,21.01
2023-05-25T08:42:17.848Z,21.32
2023-05-25T08:45:33.627Z,21.34
2023-05-25T08:48:42.859Z,21.42
2023-05-25T08:51:54.995Z,21.70
2023-05-25T08:55:02.800Z,21.71
2023-05-25T08:58:19.660Z,22.16
2023-05-25T09:01:23.189Z,22.08
2023-05-25T09:04:25.807Z,21.54
2023-05-25T09:07:31.561Z,22.39
2023-05-25T09:10:35.553Z,22.17
2023-05-25T09:13:37.778Z,22.35
2023-05-25T09:16:40.518Z,22.27
2023-05-25T09:19:42.852Z,22.57
2023-05-25T09:22:45.901Z,21.92
2023-05-25T09:25:50.760Z,21.99
2023-05-25T09:28:52.708Z,22.35
2023-05-25T09:31:54.676Z,22.39
2023-05-25T09:34:57.866Z,22.81
2023-05-25T09:37:59.835Z,22.65
2023-05-25T09:41:01.857Z,22.26
2023-05-25T09:44:11.497Z,22.29
2023-05-25T09:47:15.333Z,22.49
2023-05-25T09:50:18.073Z,22.82
2023-05-25T09:53:21.220Z,22.64
2023-05-25T09:56:23.947Z,22.44
2023-05-25T09:59:25.876Z,22.82
2023-05-25T10:02:28.427Z,23.07
2023-05-25T10:05:30.538Z,22.66
2023-05-25T10:08:33.615Z,23.23
2023-05-25T10:11:39.890Z,23.18
2023-05-25T10:14:43.862Z,23.14
2023-05-25T10:17:53.432Z,22.60
2023-05-25T10:21:04.397Z,22.84
2023-05-25T10:24:19.266Z,22.67
2023-05-25T10:27:27.283Z,22.91
2023-05-25T10:30:30.416Z,23.06
2023-05-25T10:33:33.296Z,22.85
2023-05-25T10:36:38.182Z,23.11
2023-05-25T10:39:43.215Z,23.25
2023-05-25T10:42:46.202Z,23.69
2023-05-25T10:45:49.033Z,23.36
2023-05-25T10:48:55.350Z,23.31
2023-05-25T10:52:00.908Z,24.29
2023-05-25T10:55:05.063Z,24.07
2023-05-25T10:58:09.422Z,23.92
2023-05-25T11:01:13.333Z,23.56
2023-05-25T11:04:18.064Z,24.12
2023-05-25T11:07:22.054Z,23.89
2023-05-25T11:10:48.494Z,24.19
2023-05-25T11:13:50.653Z,23.87
2023-05-25T11:17:14.521Z,23.91
2023-05-25T11:20:24.321Z,23.71
2023-05-25T11:23:26.345Z,24.05
2023-05-25T11:26:30.487Z,24.05
2023-05-25T11:29:32.598Z,24.08
2023-05-25T11:32:39.666Z,23.73
2023-05-25T11:35:45.608Z,24.19
2023-05-25T11:38:56.494Z,24.53
2023-05-25T11:42:07.404Z,24.54
2023-05-25T11:45:14.895Z,24.46
2023-05-25T11:48:16.856Z,23.78
2023-05-25T11:51:29.577Z,24.65
2023-05-25T11:54:31.548Z,24.66
2023-05-25T11:57:33.537Z,24.79
2023-05-25T12:00:35.754Z,24.41
2023-05-25T12:03:37.759Z,23.82
2023-05-25T12:06:40.474Z,24.08
2023-05-25T12:09:42.513Z,24.84
2023-05-25T12:12:52.545Z,24.59
2023-05-25T12:15:58.019Z,24.85
2023-05-25T12:19:00.147Z,24.97
2023-05-25T12:22:03.405Z,24.58
2023-05-25T12:25:12.501Z,24.72
2023-05-25T12:28:15.723Z,24.99
2023-05-25T12:31:24.667Z,24.57
2023-05-25T12:34:28.725Z,24.99
2023-05-25T12:37:30.965Z,25.07
2023-05-25T12:40:32.914Z,25.20
2023-05-25T12:43:43.288Z,24.65
2023-05-25T12:46:45.534Z,25.15
2023-05-25T12:49:52.303Z,25.30
2023-05-25T12:53:01.648Z,25.47
2023-05-25T12:56:04.387Z,25.17
2023-05-25T12:59:15.597Z,24.91
2023-05-25T13:02:17.716Z,25.43
2023-05-25T13:05:20.545Z,25.26
2023-05-25T13:08:22.593Z,25.76
2023-05-25T13:11:24.536Z,25.78
2023-05-25T13:14:58.291Z,25.64
2023-05-25T13:18:00.362Z,25.37
2023-05-25T13:21:02.559Z,25.62
2023-05-25T13:24:04.674Z,24.83
2023-05-25T13:27:07.135Z,24.73
2023-05-25T13:30:09.623Z,25.39
2023-05-25T13:33:11.552Z,25.04
2023-05-25T13:36:13.510Z,25.39
2023-05-25T13:39:15.342Z,25.50
2023-05-25T13:42:17.794Z,25.47
2023-05-25T13:45:39.854Z,25.55
2023-05-25T13:49:02.580Z,25.23
2023-05-25T13:52:24.453Z,25.45
2023-05-25T13:55:46.588Z,25.73
2023-05-25T13:58:48.410Z,25.61
2023-05-25T14:01:51.393Z,25.51
2023-05-25T14:04:54.407Z,25.42
2023-05-25T14:07:56.780Z,25.80
2023-05-25T14:10:58.766Z,25.57
2023-05-25T14:14:00.673Z,24.99
2023-05-25T14:17:02.719Z,25.57
2023-05-25T14:20:05.323Z,25.78
2023-05-25T14:23:07.297Z,25.74
2023-05-25T14:26:09.239Z,25.26
2023-05-25T14:29:12.864Z,25.08
2023-05-25T14:32:15.688Z,25.32
2023-05-25T14:35:17.661Z,25.37
2023-05-25T14:38:19.653Z,25.39
2023-05-25T14:41:22.740Z,25.39
2023-05-25T14:44:24.638Z,25.41
2023-05-25T14:47:26.866Z,25.34
2023-05-25T14:50:30.373Z,25.26
2023-05-25T14:53:32.593Z,24.97
2023-05-25T14:56:35.278Z,24.91
2023-05-25T14:59:37.540Z,25.10
2023-05-25T15:02:41.244Z,24.97
2023-05-25T15:05:43.345Z,25.20
2023-05-25T15:08:45.358Z,25.27
2023-05-25T15:11:47.256Z,25.26
2023-05-25T15:14:49.171Z,24.99
2023-05-25T15:17:51.145Z,25.23
2023-05-25T15:20:53.209Z,25.46
2023-05-25T15:23:55.100Z,24.69
2023-05-25T15:26:57.072Z,24.40
2023-05-25T15:29:59.040Z,24.75
2023-05-25T15:33:01.807Z,24.36
2023-05-25T15:36:03.964Z,24.18
2023-05-25T15:39:08.886Z,24.44
2023-05-25T15:42:11.001Z,23.83
2023-05-25T15:45:13.040Z,24.15
2023-05-25T15:48:17.008Z,24.28
2023-05-25T15:51:18.982Z,23.83
2023-05-25T15:54:20.918Z,23.82
2023-05-25T15:57:22.819Z,23.78
2023-05-25T16:00:25.927Z,24.07
2023-05-25T16:03:27.977Z,23.94
2023-05-25T16:06:31.153Z,23.67
2023-05-25T16:09:33.131Z,23.64
2023-05-25T16:12:35.092Z,23.81
2023-05-25T16:15:37.099Z,23.48
2023-05-25T16:18:39.103Z,23.20
2023-05-25T16:21:41.049Z,23.27
2023-05-25T16:24:42.925Z,22.97
2023-05-25T16:27:45.042Z,22.65
2023-05-25T16:30:47.378Z,22.81
2023-05-25T16:33:49.434Z,22.56
2023-05-25T16:36:51.399Z,22.44
2023-05-25T16:39:53.768Z,22.58
2023-05-25T16:42:55.767Z,22.63
2023-05-25T16:45:57.801Z,22.39
2023-05-25T16:48:59.784Z,22.07
2023-05-25T16:52:02.751Z,22.17
2023-05-25T16:55:05.181Z,22.08
2023-05-25T16:58:07.209Z,22.07
2023-05-25T17:01:09.205Z,22.03
2023-05-25T17:04:11.260Z,21.89
2023-05-25T17:07:13.331Z,21.72
2023-05-25T17:10:15.545Z,21.64
2023-05-25T17:13:18.557Z,21.82
2023-05-25T17:16:21.006Z,21.33
2023-05-25T17:19:22.946Z,21.29
2023-05-25T17:22:24.837Z,21.41
2023-05-25T17:25:27.186Z,21.15
2023-05-25T17:28:31.223Z,20.97
2023-05-25T17:31:36.252Z,21.13
2023-05-25T17:34:38.490Z,21.11
2023-05-25T17:37:40.394Z,20.94
2023-05-25T17:40:42.348Z,20.69
2023-05-25T17:43:44.493Z,20.88
2023-05-25T17:46:46.466Z,20.81
2023-05-25T17:49:48.406Z,20.71
2023-05-25T17:52:50.398Z,20.67
2023-05-25T17:55:52.283Z,20.47
2023-05-25T17:58:54.155Z,20.49
2023-05-25T18:01:56.399Z,20.46
2023-05-25T18:04:58.361Z,20.29
2023-05-25T18:08:00.324Z,20.26
2023-05-25T18:11:02.318Z,20.26
2023-05-25T18:14:07.888Z,19.96
2023-05-25T18:17:09.896Z,20.00
2023-05-25T18:20:12.057Z,20.10
2023-05-25T18:23:14.028Z,19.98
2023-05-25T18:26:16.056Z,19.96
2023-05-25T18:29:17.993Z,19.68
2023-05-25T18:32:20.113Z,19.59
2023-05-25T18:35:22.184Z,19.52
2023-05-25T18:38:24.124Z,19.42
2023-05-25T18:41:26.948Z,19.40
2023-05-25T18:44:28.966Z,19.23
2023-05-25T18:47:31.427Z,19.44
2023-05-25T18:50:34.734Z,19.44
2023-05-25T18:53:36.651Z,19.24
2023-05-25T18:56:38.800Z,19.27
2023-05-25T18:59:41.866Z,19.23
2023-05-25T19:02:44.121Z,19.37
2023-05-25T19:05:46.481Z,19.07
2023-05-25T19:08:49.672Z,18.99
2023-05-25T19:11:51.574Z,18.78
2023-05-25T19:14:53.495Z,18.87
2023-05-25T19:17:55.460Z,18.83
2023-05-25T19:20:58.447Z,18.87
2023-05-25T19:24:00.367Z,18.70
2023-05-25T19:27:02.455Z,18.55
2023-05-25T19:30:04.679Z,18.30
2023-05-25T19:33:06.739Z,18.48
2023-05-25T19:36:08.708Z,18.33
2023-05-25T19:39:10.621Z,18.22
2023-05-25T19:42:12.516Z,18.35
2023-05-25T19:45:14.476Z,18.15
2023-05-25T19:48:16.434Z,17.95
2023-05-25T19:51:18.458Z,18.01
2023-05-25T19:54:20.446Z,18.06
2023-05-25T19:57:22.423Z,18.02
2023-05-25T20:00:26.715Z,17.84
2023-05-25T20:03:29.350Z,17.74
2023-05-25T20:06:31.585Z,17.62
2023-05-25T20:09:35.140Z,17.61
2023-05-25T20:12:37.588Z,17.41
2023-05-25T20:15:39.638Z,17.63
2023-05-25T20:18:43.448Z,17.53
2023-05-25T20:21:45.377Z,17.36
2023-05-25T20:24:47.338Z,17.43
2023-05-25T20:27:49.509Z,17.20
2023-05-25T20:30:52.086Z,17.52
2023-05-25T20:33:53.970Z,17.45
2023-05-25T20:36:55.998Z,17.28
2023-05-25T20:39:58.059Z,17.17
2023-05-25T20:42:59.995Z,17.09
2023-05-25T20:46:01.988Z,17.11
2023-05-25T20:49:03.930Z,17.01
2023-05-25T20:52:05.911Z,17.00
2023-05-25T20:55:08.713Z,16.96
2023-05-25T20:58:10.875Z,17.13
2023-05-25T21:01:12.830Z,16.79
2023-05-25T21:04:14.935Z,16.83
2023-05-25T21:07:18.761Z,16.79
2023-05-25T21:10:20.872Z,16.83
2023-05-25T21:13:23.054Z,16.80
2023-05-25T21:16:25.704Z,16.66
2023-05-25T21:19:27.567Z,16.65
2023-05-25T21:22:29.538Z,16.45
2023-05-25T21:25:31.414Z,16.46
2023-05-25T21:28:33.287Z,16.30
2023-05-25T21:31:35.240Z,16.24
2023-05-25T21:34:37.190Z,15.98
2023-05-25T21:37:39.118Z,16.07
2023-05-25T21:40:41.115Z,16.16
2023-05-25T21:43:42.980Z,16.01
2023-05-25T21:46:44.944Z,15.86
2023-05-25T21:49:46.900Z,15.78
2023-05-25T21:52:53.677Z,15.92
2023-05-25T21:55:55.906Z,15.63
2023-05-25T21:58:57.813Z,15.71
2023-05-25T22:01:59.766Z,15.68
2023-05-25T22:05:01.697Z,15.47
2023-05-25T22:08:04.212Z,15.45
2023-05-25T22:11:06.076Z,15.40
2023-05-25T22:14:08.097Z,15.54
2023-05-25T22:17:10.407Z,15.32
2023-05-25T22:20:12.530Z,15.55
2023-05-25T22:23:14.612Z,15.42
2023-05-25T22:26:16.646Z,15.26
2023-05-25T22:29:18.559Z,15.33
2023-05-25T22:32:20.739Z,15.08
2023-05-25T22:35:22.728Z,15.30
2023-05-25T22:38:24.628Z,15.09
2023-05-25T22:41:26.686Z,15.12
2023-05-25T22:44:28.756Z,15.23
2023-05-25T22:47:30.803Z,15.31
2023-05-25T22:50:33.019Z,15.27
2023-05-25T22:53:34.885Z,15.13
2023-05-25T22:56:36.836Z,15.20
2023-05-25T22:59:38.874Z,15.13
2023-05-25T23:02:40.938Z,14.98
2023-05-25T23:05:42.997Z,14.89
2023-05-25T23:08:46.504Z,14.86
2023-05-25T23:11:48.515Z,15.09
2023-05-25T23:14:51.876Z,14.80
2023-05-25T23:17:54.069Z,15.01
2023-05-25T23:20:56.105Z,14.98
2023-05-25T23:23:58.570Z,14.91
2023-05-25T23:27:00.896Z,14.85
2023-05-25T23:30:04.017Z,14.91
2023-05-25T23:33:08.404Z,14.91
2023-05-25T23:36:10.528Z,14.79
2023-05-25T23:39:13.197Z,14.76
2023-05-25T23:42:16.777Z,14.88
2023-05-25T23:45:19.414Z,14.75
2023-05-25T23:48:21.406Z,14.84
2023-05-25T23:51:23.740Z,14.84
2023-05-25T23:54:25.642Z,14.86
2023-05-25T23:57:27.531Z,14.63
